TimeCDT,TemperatureF,Dew PointF,Humidity,Sea Level PressureIn,VisibilityMPH,Wind Direction,Wind SpeedMPH,Gust SpeedMPH,PrecipitationIn,Events,Conditions,WindDirDegrees,DateUTC
12:15 AM,34.7,31.1,87,29.73,10.0,North,17.3,27.6,N/A,,Overcast,360,2013-03-10 06:15:00
12:35 AM,34.5,30.9,87,29.73,10.0,North,19.6,32.2,N/A,,Overcast,10,2013-03-10 06:35:00
12:55 AM,34.5,30.9,87,29.71,10.0,North,21.9,31.1,N/A,,Overcast,360,2013-03-10 06:55:00
1:15 AM,34.3,30.6,86,29.72,10.0,North,20.7,31.1,N/A,,Overcast,10,2013-03-10 07:15:00
1:35 AM,34.3,30.4,85,29.71,10.0,North,20.7,29.9,N/A,,Overcast,360,2013-03-10 07:35:00
1:55 AM,34.2,30.2,85,29.71,10.0,North,18.4,31.1,N/A,,Overcast,360,2013-03-10 07:55:00
3:15 AM,34.0,30.2,86,29.73,7.0,North,20.7,31.1,N/A,Thunderstorm,Thunderstorm,360,2013-03-10 08:15:00
3:35 AM,34.0,30.2,86,29.76,7.0,North,19.6,25.3,N/A,,Overcast,10,2013-03-10 08:35:00
3:55 AM,34.0,30.2,86,29.76,5.0,North,18.4,27.6,N/A,Snow-Thunderstorm,Light Thunderstorms and Snow,10,2013-03-10 08:55:00
4:15 AM,33.8,30.0,86,29.75,3.0,North,17.3,28.8,0.01,Snow,Light Snow,360,2013-03-10 09:15:00
4:35 AM,33.8,29.8,85,29.76,4.0,North,23.0,28.8,0.01,Snow,Light Snow,360,2013-03-10 09:35:00
4:55 AM,33.3,29.8,87,29.77,2.5,North,21.9,28.8,0.02,Snow,Light Snow,10,2013-03-10 09:55:00
5:15 AM,32.9,30.2,90,29.77,1.5,North,23.0,27.6,N/A,Snow,Light Snow,360,2013-03-10 10:15:00
5:35 AM,32.7,30.6,92,29.77,1.0,North,19.6,34.5,0.01,Snow,Light Snow,360,2013-03-10 10:35:00
5:55 AM,32.9,30.7,92,29.77,1.0,North,23.0,28.8,0.01,Snow,Light Snow,360,2013-03-10 10:55:00
6:15 AM,32.5,30.7,93,29.78,0.8,North,28.8,39.1,N/A,Snow,Snow,350,2013-03-10 11:15:00
7:35 AM,30.2,27.3,89,29.83,2.5,NNW,16.1,26.5,N/A,Snow,Light Snow,340,2013-03-10 12:35:00
7:55 AM,29.3,26.2,88,29.84,1.2,NNW,21.9,28.8,N/A,Snow,Light Snow,340,2013-03-10 12:55:00
8:15 AM,28.4,25.3,88,29.84,-9999.0,NNW,29.9,34.5,N/A,,Overcast,340,2013-03-10 13:15:00
8:35 AM,27.9,24.8,88,29.86,-9999.0,North,18.4,27.6,0.01,,Overcast,350,2013-03-10 13:35:00
8:55 AM,26.8,23.4,87,29.87,-9999.0,North,25.3,35.7,0.01,,Overcast,350,2013-03-10 13:55:00
9:15 AM,26.2,23.0,88,29.86,-9999.0,NNW,23.0,29.9,0.01,,Overcast,340,2013-03-10 14:15:00
9:35 AM,25.5,21.7,86,29.87,-9999.0,NNW,27.6,38.0,0.01,,Overcast,340,2013-03-10 14:35:00
9:55 AM,24.8,21.0,86,29.89,-9999.0,North,23.0,43.7,0.01,,Overcast,350,2013-03-10 14:55:00
10:15 AM,24.6,20.7,85,29.90,-9999.0,North,23.0,33.4,N/A,,Overcast,350,2013-03-10 15:15:00
10:35 AM,24.6,20.8,86,29.90,-9999.0,NNW,19.6,28.8,N/A,,Overcast,340,2013-03-10 15:35:00
10:55 AM,23.9,19.9,85,29.91,-9999.0,North,26.5,38.0,N/A,,Overcast,350,2013-03-10 15:55:00
11:15 AM,24.3,20.3,85,29.91,-9999.0,NNW,25.3,33.4,N/A,,Overcast,340,2013-03-10 16:15:00
11:35 AM,24.3,20.1,84,29.92,-9999.0,NNW,24.2,32.2,N/A,,Overcast,340,2013-03-10 16:35:00
11:55 AM,24.6,20.3,84,29.93,1.0,NNW,23.0,38.0,N/A,Snow,Light Snow,340,2013-03-10 16:55:00
12:15 PM,25.2,21.0,84,29.93,1.0,NNW,24.2,32.2,N/A,Snow,Light Snow,340,2013-03-10 17:15:00
12:35 PM,25.5,21.2,84,29.93,-9999.0,NNW,27.6,39.1,N/A,,Unknown,340,2013-03-10 17:35:00
12:55 PM,25.3,20.7,82,29.94,-9999.0,NNW,24.2,36.8,N/A,Snow,Light Snow,340,2013-03-10 17:55:00
1:15 PM,25.2,20.5,82,29.94,1.0,NNW,19.6,36.8,N/A,Snow,Light Snow,340,2013-03-10 18:15:00
1:35 PM,25.3,20.5,82,29.94,1.2,NNW,24.2,36.8,N/A,Snow,Light Snow,340,2013-03-10 18:35:00
1:55 PM,25.3,20.5,82,29.94,1.2,NNW,25.3,38.0,N/A,,Haze,340,2013-03-10 18:55:00
2:15 PM,25.0,20.5,83,29.94,1.2,NNW,26.5,36.8,N/A,Snow,Light Snow,330,2013-03-10 19:15:00
2:35 PM,24.8,20.5,84,29.93,0.8,NNW,24.2,36.8,N/A,Snow,Light Snow,340,2013-03-10 19:35:00
2:55 PM,24.8,20.7,84,29.93,0.5,NNW,24.2,34.5,N/A,Snow,Snow,340,2013-03-10 19:55:00
3:15 PM,24.6,20.8,86,29.93,0.8,NNW,25.3,29.9,N/A,Snow,Light Snow,340,2013-03-10 20:15:00
3:35 PM,24.3,19.8,83,29.94,0.8,NNW,25.3,36.8,N/A,Snow,Light Snow,340,2013-03-10 20:35:00
3:55 PM,25.3,20.3,81,29.95,1.2,NNW,16.1,32.2,N/A,Snow,Light Snow,340,2013-03-10 20:55:00
4:15 PM,25.2,20.5,82,29.95,0.8,NNW,19.6,34.5,N/A,Snow,Light Snow,340,2013-03-10 21:15:00
4:35 PM,24.8,20.7,84,29.96,0.8,NNW,21.9,31.1,N/A,Snow,Light Snow,330,2013-03-10 21:35:00
4:55 PM,24.8,20.8,85,29.97,1.0,NNW,16.1,21.9,N/A,Snow,Light Snow,330,2013-03-10 21:55:00
5:15 PM,25.5,21.2,84,29.97,1.2,NNW,21.9,32.2,N/A,Snow,Light Snow,340,2013-03-10 22:15:00
5:35 PM,25.3,21.2,84,29.97,0.8,NNW,19.6,28.8,N/A,Snow,Light Snow,340,2013-03-10 22:35:00
5:55 PM,25.7,21.2,83,29.96,1.0,NNW,23.0,31.1,N/A,Snow,Light Snow,340,2013-03-10 22:55:00
6:15 PM,26.1,21.6,83,29.97,1.8,NNW,16.1,26.5,N/A,Snow,Light Snow,330,2013-03-10 23:15:00
6:35 PM,25.7,21.7,85,29.97,0.8,NNW,15.0,26.5,N/A,Snow,Light Snow,340,2013-03-10 23:35:00
6:55 PM,25.5,21.7,86,29.97,0.8,North,20.7,26.5,N/A,Snow,Light Snow,350,2013-03-10 23:55:00
7:15 PM,25.5,21.9,86,29.97,1.0,North,15.0,25.3,N/A,Snow,Light Snow,350,2013-03-11 00:15:00
7:35 PM,25.7,22.1,86,29.98,1.0,NNW,15.0,25.3,N/A,Snow,Light Snow,340,2013-03-11 00:35:00
7:55 PM,25.7,21.7,85,29.99,3.0,North,15.0,25.3,N/A,Snow,Light Snow,350,2013-03-11 00:55:00
8:15 PM,25.7,21.6,84,29.99,2.5,North,15.0,24.2,N/A,Snow,Light Snow,350,2013-03-11 01:15:00
8:35 PM,25.3,21.2,84,29.99,2.0,North,18.4,23.0,N/A,Snow,Light Snow,350,2013-03-11 01:35:00
8:55 PM,25.2,21.2,85,30.00,2.0,North,16.1,26.5,N/A,Snow,Light Snow,350,2013-03-11 01:55:00
9:15 PM,24.8,20.8,85,30.00,4.0,North,15.0,-,N/A,Snow,Light Snow,350,2013-03-11 02:15:00
9:35 PM,25.0,20.7,84,30.00,4.0,North,16.1,23.0,N/A,Snow,Light Snow,350,2013-03-11 02:35:00
9:55 PM,24.8,19.4,80,30.00,7.0,North,19.6,23.0,N/A,,Mostly Cloudy,350,2013-03-11 02:55:00
10:15 PM,24.6,18.5,78,30.00,10.0,North,13.8,21.9,N/A,,Scattered Clouds,350,2013-03-11 03:15:00
10:35 PM,24.8,18.3,76,30.00,10.0,North,12.7,19.6,N/A,,Scattered Clouds,350,2013-03-11 03:35:00
10:55 PM,24.6,18.0,76,30.01,10.0,NNW,13.8,-,N/A,,Overcast,340,2013-03-11 03:55:00
11:15 PM,24.4,18.1,77,30.00,10.0,North,10.4,-,N/A,,Overcast,350,2013-03-11 04:15:00
11:35 PM,24.6,17.8,75,30.01,10.0,North,11.5,21.9,N/A,,Overcast,350,2013-03-11 04:35:00
11:55 PM,23.9,16.9,75,30.01,10.0,North,13.8,23.0,N/A,,Overcast,350,2013-03-11 04:55:00
12:15 AM,23.5,16.7,75,30.00,10.0,NNW,12.7,19.6,N/A,,Scattered Clouds,340,2013-03-11 05:15:00
12:35 AM,23.0,16.5,76,29.99,10.0,NNW,11.5,18.4,N/A,,Clear,340,2013-03-11 05:35:00
12:55 AM,23.0,15.8,74,29.99,10.0,North,12.7,20.7,N/A,,Clear,350,2013-03-11 05:55:00